Angie, Louisiana
Current Conditions -  °F | °C
As of 6:53 PM on Monday 22 Dec 2014 (Local Time) from KHBG Reporting Station
Broken Clouds Broken Clouds  
Wind Chill: 69°   Ceiling: 1300
Heat Index: 69°   Visibility: 10mi
Dew Point: 66°   Wind: 9mph
Humidity: 90%   Direction: 180°S
Pressure: 29.72"   Gusts: NA
Location:  30.96°N, 89.82°W
Report Text: KHBG 230053Z AUTO 18008KT 10SM BKN013 21/19 A2972 RMK AO2 SLP063 T02060189
Loading
Personal Weather Stations






























Interactive Weather Map New forecast layout! Learn more

10-Day Weather Forecast

Advertisements
Track Severe Weather on mobile